Bellingham International Airport
KBLI : now visible

Airfield :











YOU CAN JOIN US ON...

 
LOGIN :

Register | Disclaimer

   EN    FR    IT 

 









Legend :    VFR   Marginal VFR   IFR   Intensive IFR   Very Intensive IFR
Visi :
Ceiling :
>= 8 km
>= 3000ft
5 to 8 km
1000 to 3000 ft
1500m to 5 km
500 to 1000 ft
800 to 1500m
200 to 500 ft
< 800m
< 200 ft
Symbols :   Thunderstorms  Fog  Heavy snow  Heavy precipitations  Wind > 20 kt






- Airport Elevation : 170 ft
- IATA code : BLI


KBLI - Bellingham International

CURRENT METAR :
  • 261353Z 15007KT 4SM RA BR FEW015 SCT025 OVC040 09/08 A3007 RMK AO2 SLP191 P0007 T00890078

EXPIRED METARs :
  • 261305Z AUTO 16006G15KT 8SM -RA SCT014 BKN033 OVC044 09/08 A3007 RMK AO2 P0001 T00940078
  • 261253Z AUTO 17004KT 8SM -RA BKN014 BKN024 OVC044 09/08 A3007 RMK AO2 SLP191 P0004 T00890078
  • 261234Z AUTO 16006KT 10SM -RA BKN014 OVC039 09/08 A3007 RMK AO2 P0003 T00940078
  • 261153Z AUTO VRB04KT 10SM -RA SCT014 BKN021 OVC029 09/07 A3007 RMK AO2 RAB22 SLP188 P0001 60001 70014 T00940072 10100 20094 53010
  • 261053Z AUTO 18005KT 10SM OVC018 09/07 A3005 RMK AO2 SLP183 T00940067
  • 261033Z AUTO 17006KT 10SM SCT017 BKN021 OVC031 10/07 A3005 RMK AO2 T01000067
  • 261021Z AUTO 17006KT 10SM SCT015 SCT020 OVC034 10/07 A3005 RMK AO2 T01000067
  • 260953Z AUTO 17009G18KT 10SM BKN016 BKN030 OVC035 10/07 A3004 RMK AO2 SLP181 T01000067

TAF KBLI
Valid from the 26 at 12:00 until the 27 at 12:00 UTC


261140Z 2612/2712 18007KT P6SM -RA OVC018
FM261600 16012KT P6SM -RA SCT008 BKN012 OVC020
FM262300 16012KT P6SM -RA SCT015 BKN025 OVC040
FM270300 16008KT P6SM SCT025 BKN040 OVC060
KZSE FIR / North America



MET'MAP, your aeronautical weather chart ! - Copyright ORBIFLY December 2007 - Disclaimer

ORBIFLY MET'MAP TEAM :

Programming & Development : Alexandra Zaïnal
Original concept : Baudouin d'Aumeries
Technical & hardware support : Manuel Goepfert
Assistance : Marc-Olivier Méhu




SOURCES & CREDITS :

   NOAA       Earth
Advisory